sensor_id;sensor_type;location;lat;lon;timestamp;pressure;altitude;pressure_sealevel;temperature;humidity
6435;BME280;3250;42.694;23.278;2023-05-23T00:01:13;94669.88;;;12.42;96.77
6435;BME280;3250;42.694;23.278;2023-05-23T00:03:41;94702.25;;;12.50;97.44
6435;BME280;3250;42.694;23.278;2023-05-23T00:06:06;94682.69;;;12.27;98.79
6435;BME280;3250;42.694;23.278;2023-05-23T00:08:34;94691.31;;;12.46;98.64
6435;BME280;3250;42.694;23.278;2023-05-23T00:10:59;94661.63;;;12.09;99.68
6435;BME280;3250;42.694;23.278;2023-05-23T00:13:24;94640.97;;;12.06;99.59
6435;BME280;3250;42.694;23.278;2023-05-23T00:15:51;94703.41;;;12.54;98.60
6435;BME280;3250;42.694;23.278;2023-05-23T00:18:16;94667.34;;;12.36;97.46
6435;BME280;3250;42.694;23.278;2023-05-23T00:20:44;94690.91;;;12.61;97.09
6435;BME280;3250;42.694;23.278;2023-05-23T00:23:11;94697.47;;;12.70;96.79
6435;BME280;3250;42.694;23.278;2023-05-23T00:25:44;94693.34;;;12.74;96.71
6435;BME280;3250;42.694;23.278;2023-05-23T00:28:13;94683.78;;;12.73;96.53
6435;BME280;3250;42.694;23.278;2023-05-23T00:30:38;94673.47;;;12.60;96.02
6435;BME280;3250;42.694;23.278;2023-05-23T00:33:04;94695.97;;;12.74;95.64
6435;BME280;3250;42.694;23.278;2023-05-23T00:35:29;94696.44;;;12.71;95.23
6435;BME280;3250;42.694;23.278;2023-05-23T00:37:55;94652.53;;;12.46;95.03
6435;BME280;3250;42.694;23.278;2023-05-23T00:40:21;94700.56;;;12.67;94.58
6435;BME280;3250;42.694;23.278;2023-05-23T00:42:47;94703.91;;;12.62;94.85
6435;BME280;3250;42.694;23.278;2023-05-23T00:45:13;94690.56;;;12.57;95.27
6435;BME280;3250;42.694;23.278;2023-05-23T00:47:39;94647.66;;;12.20;95.47
6435;BME280;3250;42.694;23.278;2023-05-23T00:50:10;94690.22;;;12.54;95.62
6435;BME280;3250;42.694;23.278;2023-05-23T00:52:40;94646.75;;;12.26;95.22
6435;BME280;3250;42.694;23.278;2023-05-23T00:55:07;94699.16;;;12.53;95.04
6435;BME280;3250;42.694;23.278;2023-05-23T00:57:32;94676.06;;;12.36;94.89
6435;BME280;3250;42.694;23.278;2023-05-23T00:59:59;94682.38;;;12.35;94.91
6435;BME280;3250;42.694;23.278;2023-05-23T01:02:26;94682.91;;;12.26;94.86
6435;BME280;3250;42.694;23.278;2023-05-23T01:04:53;94679.91;;;12.22;95.13
6435;BME280;3250;42.694;23.278;2023-05-23T01:07:22;94698.66;;;12.32;94.95
6435;BME280;3250;42.694;23.278;2023-05-23T01:09:47;94705.53;;;12.33;94.74
6435;BME280;3250;42.694;23.278;2023-05-23T01:15:03;94680.13;;;12.21;94.96
6435;BME280;3250;42.694;23.278;2023-05-23T01:17:54;94702.53;;;12.30;94.99
6435;BME280;3250;42.694;23.278;2023-05-23T01:20:29;94661.59;;;11.97;94.54
6435;BME280;3250;42.694;23.278;2023-05-23T01:23:09;94655.50;;;11.97;94.79
6435;BME280;3250;42.694;23.278;2023-05-23T01:26:03;94704.13;;;12.19;95.79
6435;BME280;3250;42.694;23.278;2023-05-23T01:28:36;94654.50;;;11.80;95.93
6435;BME280;3250;42.694;23.278;2023-05-23T01:31:07;94702.88;;;12.03;96.14
6435;BME280;3250;42.694;23.278;2023-05-23T01:33:35;94699.81;;;12.06;96.23
6435;BME280;3250;42.694;23.278;2023-05-23T01:36:01;94655.81;;;11.89;95.84
6435;BME280;3250;42.694;23.278;2023-05-23T01:38:28;94689.75;;;12.15;95.34
6435;BME280;3250;42.694;23.278;2023-05-23T01:40:53;94663.41;;;11.97;94.91
6435;BME280;3250;42.694;23.278;2023-05-23T01:43:19;94691.22;;;12.11;94.72
6435;BME280;3250;42.694;23.278;2023-05-23T01:45:46;94677.31;;;12.04;94.41
6435;BME280;3250;42.694;23.278;2023-05-23T01:48:13;94674.88;;;11.91;94.79
6435;BME280;3250;42.694;23.278;2023-05-23T01:50:40;94689.94;;;12.02;94.88
6435;BME280;3250;42.694;23.278;2023-05-23T01:53:11;94659.34;;;11.83;94.98
6435;BME280;3250;42.694;23.278;2023-05-23T01:55:36;94655.81;;;11.89;94.95
6435;BME280;3250;42.694;23.278;2023-05-23T01:58:04;94682.09;;;11.95;94.66
6435;BME280;3250;42.694;23.278;2023-05-23T02:00:30;94657.38;;;11.78;94.59
6435;BME280;3250;42.694;23.278;2023-05-23T02:02:55;94633.56;;;11.66;94.74
6435;BME280;3250;42.694;23.278;2023-05-23T02:05:20;94679.94;;;11.92;94.27
6435;BME280;3250;42.694;23.278;2023-05-23T02:07:46;94635.63;;;11.64;94.24
6435;BME280;3250;42.694;23.278;2023-05-23T02:10:11;94678.53;;;11.90;93.77
6435;BME280;3250;42.694;23.278;2023-05-23T02:12:37;94644.19;;;11.60;93.74
6435;BME280;3250;42.694;23.278;2023-05-23T02:15:02;94669.81;;;11.71;94.08
6435;BME280;3250;42.694;23.278;2023-05-23T02:17:28;94643.34;;;11.48;93.93
6435;BME280;3250;42.694;23.278;2023-05-23T02:19:53;94655.53;;;11.60;93.94
6435;BME280;3250;42.694;23.278;2023-05-23T02:22:22;94662.72;;;11.53;94.25
6435;BME280;3250;42.694;23.278;2023-05-23T02:24:49;94647.13;;;11.33;94.83
6435;BME280;3250;42.694;23.278;2023-05-23T02:27:14;94671.34;;;11.42;95.58
6435;BME280;3250;42.694;23.278;2023-05-23T02:29:39;94632.13;;;11.16;95.79
6435;BME280;3250;42.694;23.278;2023-05-23T02:32:05;94651.59;;;11.33;95.66
6435;BME280;3250;42.694;23.278;2023-05-23T02:34:31;94627.03;;;11.21;95.46
6435;BME280;3250;42.694;23.278;2023-05-23T02:36:56;94637.06;;;11.30;95.01
6435;BME280;3250;42.694;23.278;2023-05-23T02:39:21;94675.47;;;11.56;95.05
6435;BME280;3250;42.694;23.278;2023-05-23T02:41:47;94677.31;;;11.56;95.03
6435;BME280;3250;42.694;23.278;2023-05-23T02:44:12;94634.50;;;11.24;94.79
6435;BME280;3250;42.694;23.278;2023-05-23T02:46:37;94665.22;;;11.48;94.63
6435;BME280;3250;42.694;23.278;2023-05-23T02:49:03;94624.75;;;11.24;94.27
6435;BME280;3250;42.694;23.278;2023-05-23T02:51:28;94638.28;;;11.28;94.11
6435;BME280;3250;42.694;23.278;2023-05-23T02:53:53;94677.09;;;11.39;94.20
6435;BME280;3250;42.694;23.278;2023-05-23T02:56:19;94666.63;;;11.32;94.86
6435;BME280;3250;42.694;23.278;2023-05-23T02:58:46;94646.78;;;11.30;94.93
6435;BME280;3250;42.694;23.278;2023-05-23T03:01:11;94649.50;;;11.23;94.93
6435;BME280;3250;42.694;23.278;2023-05-23T03:03:37;94634.00;;;11.15;94.49
6435;BME280;3250;42.694;23.278;2023-05-23T03:06:02;94680.88;;;11.43;94.88
6435;BME280;3250;42.694;23.278;2023-05-23T03:08:30;94575.81;;;10.80;95.49
6435;BME280;3250;42.694;23.278;2023-05-23T03:10:56;94646.06;;;11.23;95.75
6435;BME280;3250;42.694;23.278;2023-05-23T03:13:21;94639.78;;;11.24;96.61
6435;BME280;3250;42.694;23.278;2023-05-23T03:15:46;94657.75;;;11.45;96.85
6435;BME280;3250;42.694;23.278;2023-05-23T03:18:12;94660.53;;;11.50;97.16
6435;BME280;3250;42.694;23.278;2023-05-23T03:20:37;94654.22;;;11.51;97.11
6435;BME280;3250;42.694;23.278;2023-05-23T03:23:03;94634.53;;;11.35;96.83
6435;BME280;3250;42.694;23.278;2023-05-23T03:25:28;94678.75;;;11.70;97.27
6435;BME280;3250;42.694;23.278;2023-05-23T03:27:53;94680.66;;;11.81;97.70
6435;BME280;3250;42.694;23.278;2023-05-23T03:30:19;94677.34;;;11.86;97.95
6435;BME280;3250;42.694;23.278;2023-05-23T03:32:44;94672.66;;;11.88;98.05
6435;BME280;3250;42.694;23.278;2023-05-23T03:35:10;94699.59;;;12.08;98.13
6435;BME280;3250;42.694;23.278;2023-05-23T03:37:36;94691.47;;;12.09;98.40
6435;BME280;3250;42.694;23.278;2023-05-23T03:40:02;94699.78;;;12.25;98.78
6435;BME280;3250;42.694;23.278;2023-05-23T03:42:28;94707.38;;;12.33;98.99
6435;BME280;3250;42.694;23.278;2023-05-23T03:44:53;94677.84;;;12.24;98.96
6435;BME280;3250;42.694;23.278;2023-05-23T03:47:19;94705.25;;;12.53;98.63
6435;BME280;3250;42.694;23.278;2023-05-23T03:49:44;94700.63;;;12.48;98.59
6435;BME280;3250;42.694;23.278;2023-05-23T03:52:10;94713.28;;;12.58;99.00
6435;BME280;3250;42.694;23.278;2023-05-23T03:54:35;94711.72;;;12.69;99.24
6435;BME280;3250;42.694;23.278;2023-05-23T03:57:01;94697.88;;;12.55;99.55
6435;BME280;3250;42.694;23.278;2023-05-23T03:59:27;94718.72;;;12.75;99.82
6435;BME280;3250;42.694;23.278;2023-05-23T04:01:52;94690.00;;;12.67;99.08
6435;BME280;3250;42.694;23.278;2023-05-23T04:04:18;94694.59;;;12.71;98.55
6435;BME280;3250;42.694;23.278;2023-05-23T04:06:45;94695.63;;;12.70;98.30
6435;BME280;3250;42.694;23.278;2023-05-23T04:09:11;94686.91;;;12.70;98.18
6435;BME280;3250;42.694;23.278;2023-05-23T04:11:38;94705.41;;;12.81;98.67
6435;BME280;3250;42.694;23.278;2023-05-23T04:14:03;94712.44;;;12.88;98.96
6435;BME280;3250;42.694;23.278;2023-05-23T04:16:29;94710.69;;;12.93;99.14
6435;BME280;3250;42.694;23.278;2023-05-23T04:18:57;94683.47;;;12.81;99.13
6435;BME280;3250;42.694;23.278;2023-05-23T04:21:23;94694.03;;;12.93;98.66
6435;BME280;3250;42.694;23.278;2023-05-23T04:23:48;94708.31;;;13.03;98.59
6435;BME280;3250;42.694;23.278;2023-05-23T04:26:13;94684.38;;;12.98;98.70
6435;BME280;3250;42.694;23.278;2023-05-23T04:28:39;94703.28;;;13.13;98.43
6435;BME280;3250;42.694;23.278;2023-05-23T04:31:04;94687.25;;;13.08;97.75
6435;BME280;3250;42.694;23.278;2023-05-23T04:33:30;94693.72;;;13.12;97.96
6435;BME280;3250;42.694;23.278;2023-05-23T04:35:55;94688.66;;;13.11;97.82
6435;BME280;3250;42.694;23.278;2023-05-23T04:38:21;94698.53;;;13.15;97.53
6435;BME280;3250;42.694;23.278;2023-05-23T04:40:49;94700.63;;;13.13;97.06
6435;BME280;3250;42.694;23.278;2023-05-23T04:43:15;94692.31;;;13.10;96.78
6435;BME280;3250;42.694;23.278;2023-05-23T04:45:40;94715.56;;;13.19;96.55
6435;BME280;3250;42.694;23.278;2023-05-23T04:48:06;94697.84;;;13.08;96.58
6435;BME280;3250;42.694;23.278;2023-05-23T04:50:32;94701.19;;;13.04;96.46
6435;BME280;3250;42.694;23.278;2023-05-23T04:53:00;94723.00;;;13.11;96.93
6435;BME280;3250;42.694;23.278;2023-05-23T04:55:25;94714.16;;;13.05;97.38
6435;BME280;3250;42.694;23.278;2023-05-23T04:57:50;94676.69;;;12.73;97.33
6435;BME280;3250;42.694;23.278;2023-05-23T05:00:16;94726.31;;;13.06;97.91
6435;BME280;3250;42.694;23.278;2023-05-23T05:02:42;94713.22;;;12.88;97.80
6435;BME280;3250;42.694;23.278;2023-05-23T05:05:08;94715.97;;;12.93;97.88
6435;BME280;3250;42.694;23.278;2023-05-23T05:07:33;94708.88;;;12.94;97.97
6435;BME280;3250;42.694;23.278;2023-05-23T05:10:00;94731.28;;;13.03;97.39
6435;BME280;3250;42.694;23.278;2023-05-23T05:12:25;94717.81;;;12.93;97.76
6435;BME280;3250;42.694;23.278;2023-05-23T05:14:51;94734.38;;;13.00;97.54
6435;BME280;3250;42.694;23.278;2023-05-23T05:17:16;94714.69;;;12.72;98.09
6435;BME280;3250;42.694;23.278;2023-05-23T05:19:44;94731.91;;;12.75;99.09
6435;BME280;3250;42.694;23.278;2023-05-23T05:22:09;94733.56;;;12.88;99.45
6435;BME280;3250;42.694;23.278;2023-05-23T05:24:35;94745.41;;;12.97;99.83
6435;BME280;3250;42.694;23.278;2023-05-23T05:27:00;94730.34;;;13.09;99.83
6435;BME280;3250;42.694;23.278;2023-05-23T05:29:25;94688.41;;;12.89;99.11
6435;BME280;3250;42.694;23.278;2023-05-23T05:31:52;94718.31;;;13.13;98.32
6435;BME280;3250;42.694;23.278;2023-05-23T05:34:17;94736.59;;;13.26;98.61
6435;BME280;3250;42.694;23.278;2023-05-23T05:36:43;94730.84;;;13.29;98.37
6435;BME280;3250;42.694;23.278;2023-05-23T05:39:12;94742.69;;;13.38;98.26
6435;BME280;3250;42.694;23.278;2023-05-23T05:41:38;94725.91;;;13.33;97.85
6435;BME280;3250;42.694;23.278;2023-05-23T05:44:04;94744.41;;;13.44;97.40
6435;BME280;3250;42.694;23.278;2023-05-23T05:46:30;94732.34;;;13.25;97.05
6435;BME280;3250;42.694;23.278;2023-05-23T05:48:55;94721.31;;;13.28;98.03
6435;BME280;3250;42.694;23.278;2023-05-23T05:51:21;94753.97;;;13.57;98.26
6435;BME280;3250;42.694;23.278;2023-05-23T05:53:46;94741.78;;;13.56;97.44
6435;BME280;3250;42.694;23.278;2023-05-23T05:56:14;94739.56;;;13.53;95.93
6435;BME280;3250;42.694;23.278;2023-05-23T05:58:40;94748.63;;;13.69;96.39
6435;BME280;3250;42.694;23.278;2023-05-23T06:01:05;94738.31;;;13.55;96.66
6435;BME280;3250;42.694;23.278;2023-05-23T06:03:31;94757.06;;;13.66;96.31
6435;BME280;3250;42.694;23.278;2023-05-23T06:05:58;94734.50;;;13.63;96.20
6435;BME280;3250;42.694;23.278;2023-05-23T06:08:23;94749.53;;;13.86;96.47
6435;BME280;3250;42.694;23.278;2023-05-23T06:10:49;94750.44;;;13.91;96.09
6435;BME280;3250;42.694;23.278;2023-05-23T06:13:14;94746.41;;;14.01;95.34
6435;BME280;3250;42.694;23.278;2023-05-23T06:15:40;94738.47;;;14.01;94.54
6435;BME280;3250;42.694;23.278;2023-05-23T06:18:05;94734.94;;;14.12;94.21
6435;BME280;3250;42.694;23.278;2023-05-23T06:20:30;94757.22;;;14.39;94.73
6435;BME280;3250;42.694;23.278;2023-05-23T06:22:56;94733.91;;;14.53;94.46
6435;BME280;3250;42.694;23.278;2023-05-23T06:25:21;94742.63;;;14.82;92.93
6435;BME280;3250;42.694;23.278;2023-05-23T06:27:47;94751.56;;;15.09;90.90
6435;BME280;3250;42.694;23.278;2023-05-23T06:30:12;94726.16;;;14.96;89.92
6435;BME280;3250;42.694;23.278;2023-05-23T06:32:39;94724.31;;;14.97;90.29
6435;BME280;3250;42.694;23.278;2023-05-23T06:35:05;94734.78;;;14.87;90.76
6435;BME280;3250;42.694;23.278;2023-05-23T06:37:30;94748.91;;;15.09;90.98
6435;BME280;3250;42.694;23.278;2023-05-23T06:39:56;94743.13;;;15.29;91.58
6435;BME280;3250;42.694;23.278;2023-05-23T06:42:21;94714.72;;;15.46;90.82
6435;BME280;3250;42.694;23.278;2023-05-23T06:44:47;94723.59;;;15.95;88.88
6435;BME280;3250;42.694;23.278;2023-05-23T06:47:12;94753.09;;;16.91;88.42
6435;BME280;3250;42.694;23.278;2023-05-23T06:49:37;94742.03;;;17.36;83.28
6435;BME280;3250;42.694;23.278;2023-05-23T06:52:03;94710.34;;;17.71;83.67
6435;BME280;3250;42.694;23.278;2023-05-23T06:54:28;94731.44;;;18.56;81.56
6435;BME280;3250;42.694;23.278;2023-05-23T06:56:54;94749.97;;;19.28;77.35
6435;BME280;3250;42.694;23.278;2023-05-23T06:59:19;94753.41;;;19.79;77.13
6435;BME280;3250;42.694;23.278;2023-05-23T07:01:45;94738.38;;;20.04;73.86
6435;BME280;3250;42.694;23.278;2023-05-23T07:04:10;94757.56;;;20.21;69.97
6435;BME280;3250;42.694;23.278;2023-05-23T07:06:36;94725.47;;;20.16;69.64
6435;BME280;3250;42.694;23.278;2023-05-23T07:09:06;94733.41;;;20.41;69.46
6435;BME280;3250;42.694;23.278;2023-05-23T07:11:31;94738.44;;;20.53;70.90
6435;BME280;3250;42.694;23.278;2023-05-23T07:13:57;94745.88;;;21.10;69.33
6435;BME280;3250;42.694;23.278;2023-05-23T07:16:23;94746.31;;;21.56;68.16
6435;BME280;3250;42.694;23.278;2023-05-23T07:18:49;94706.03;;;21.37;65.94
6435;BME280;3250;42.694;23.278;2023-05-23T07:21:14;94739.81;;;21.62;64.13
6435;BME280;3250;42.694;23.278;2023-05-23T07:23:39;94728.25;;;21.67;64.70
6435;BME280;3250;42.694;23.278;2023-05-23T07:26:05;94736.09;;;21.87;66.22
6435;BME280;3250;42.694;23.278;2023-05-23T07:28:33;94697.72;;;21.92;63.54
6435;BME280;3250;42.694;23.278;2023-05-23T07:30:59;94729.53;;;22.46;63.51
6435;BME280;3250;42.694;23.278;2023-05-23T07:33:24;94707.31;;;22.40;60.07
6435;BME280;3250;42.694;23.278;2023-05-23T07:35:50;94696.91;;;22.39;62.49
6435;BME280;3250;42.694;23.278;2023-05-23T07:38:15;94709.66;;;22.28;61.17
6435;BME280;3250;42.694;23.278;2023-05-23T07:40:41;94712.56;;;22.50;62.70
6435;BME280;3250;42.694;23.278;2023-05-23T07:43:06;94676.47;;;22.62;63.39
6435;BME280;3250;42.694;23.278;2023-05-23T07:45:31;94712.47;;;22.98;62.00
6435;BME280;3250;42.694;23.278;2023-05-23T07:47:57;94702.53;;;23.31;60.26
6435;BME280;3250;42.694;23.278;2023-05-23T07:50:22;94720.44;;;23.54;58.47
6435;BME280;3250;42.694;23.278;2023-05-23T07:52:48;94679.06;;;23.04;60.03
6435;BME280;3250;42.694;23.278;2023-05-23T07:55:15;94702.44;;;23.04;61.41
6435;BME280;3250;42.694;23.278;2023-05-23T07:57:40;94683.31;;;23.24;62.41
6435;BME280;3250;42.694;23.278;2023-05-23T08:00:06;94672.63;;;22.86;58.65
6435;BME280;3250;42.694;23.278;2023-05-23T08:02:32;94703.16;;;22.53;60.57
6435;BME280;3250;42.694;23.278;2023-05-23T08:04:57;94660.59;;;22.46;61.84
6435;BME280;3250;42.694;23.278;2023-05-23T08:07:23;94703.63;;;22.98;60.30
6435;BME280;3250;42.694;23.278;2023-05-23T08:09:49;94682.72;;;22.57;60.36
6435;BME280;3250;42.694;23.278;2023-05-23T08:12:14;94699.91;;;22.93;60.84
6435;BME280;3250;42.694;23.278;2023-05-23T08:14:40;94691.91;;;22.70;60.43
6435;BME280;3250;42.694;23.278;2023-05-23T08:17:05;94678.50;;;22.51;61.22
6435;BME280;3250;42.694;23.278;2023-05-23T08:19:30;94699.28;;;22.83;61.67
6435;BME280;3250;42.694;23.278;2023-05-23T08:21:56;94690.28;;;23.25;61.96
6435;BME280;3250;42.694;23.278;2023-05-23T08:24:21;94684.41;;;23.23;58.59
6435;BME280;3250;42.694;23.278;2023-05-23T08:26:47;94697.09;;;22.85;59.99
6435;BME280;3250;42.694;23.278;2023-05-23T08:29:13;94676.34;;;22.90;59.11
6435;BME280;3250;42.694;23.278;2023-05-23T08:31:38;94701.09;;;23.20;59.18
6435;BME280;3250;42.694;23.278;2023-05-23T08:34:05;94699.44;;;23.24;61.21
6435;BME280;3250;42.694;23.278;2023-05-23T08:36:31;94681.38;;;23.43;61.44
6435;BME280;3250;42.694;23.278;2023-05-23T08:38:58;94695.78;;;23.52;58.69
6435;BME280;3250;42.694;23.278;2023-05-23T08:41:24;94691.22;;;23.34;59.08
6435;BME280;3250;42.694;23.278;2023-05-23T08:43:51;94667.31;;;23.32;59.09
6435;BME280;3250;42.694;23.278;2023-05-23T08:46:18;94650.94;;;23.48;60.01
6435;BME280;3250;42.694;23.278;2023-05-23T08:48:49;94672.22;;;23.77;57.89
6435;BME280;3250;42.694;23.278;2023-05-23T08:51:16;94688.06;;;23.78;57.15
6435;BME280;3250;42.694;23.278;2023-05-23T08:53:44;94692.41;;;23.88;58.10
6435;BME280;3250;42.694;23.278;2023-05-23T08:56:13;94677.28;;;23.92;56.70
6435;BME280;3250;42.694;23.278;2023-05-23T08:58:40;94672.47;;;23.61;58.09
6435;BME280;3250;42.694;23.278;2023-05-23T09:01:09;94677.41;;;23.41;57.87
6435;BME280;3250;42.694;23.278;2023-05-23T09:03:35;94682.97;;;23.44;58.20
6435;BME280;3250;42.694;23.278;2023-05-23T09:06:08;94670.50;;;23.67;57.93
6435;BME280;3250;42.694;23.278;2023-05-23T09:08:35;94671.22;;;24.00;58.26
6435;BME280;3250;42.694;23.278;2023-05-23T09:11:01;94668.72;;;24.03;58.22
6435;BME280;3250;42.694;23.278;2023-05-23T09:13:29;94650.59;;;24.09;56.95
6435;BME280;3250;42.694;23.278;2023-05-23T09:18:24;94642.84;;;23.94;50.05
6435;BME280;3250;42.694;23.278;2023-05-23T09:20:50;94644.59;;;23.98;53.99
6435;BME280;3250;42.694;23.278;2023-05-23T09:23:15;94662.22;;;24.18;52.36
6435;BME280;3250;42.694;23.278;2023-05-23T09:25:47;94666.63;;;24.00;51.20
6435;BME280;3250;42.694;23.278;2023-05-23T09:28:13;94656.34;;;23.61;50.10
6435;BME280;3250;42.694;23.278;2023-05-23T09:30:39;94663.91;;;23.27;49.96
6435;BME280;3250;42.694;23.278;2023-05-23T09:33:04;94624.41;;;23.14;49.46
6435;BME280;3250;42.694;23.278;2023-05-23T09:35:30;94624.69;;;23.12;51.32
6435;BME280;3250;42.694;23.278;2023-05-23T09:37:57;94618.84;;;23.24;49.97
6435;BME280;3250;42.694;23.278;2023-05-23T09:40:31;94639.22;;;23.57;52.40
6435;BME280;3250;42.694;23.278;2023-05-23T09:43:04;94611.75;;;23.14;49.58
6435;BME280;3250;42.694;23.278;2023-05-23T09:45:32;94648.00;;;23.30;50.74
6435;BME280;3250;42.694;23.278;2023-05-23T09:47:58;94637.53;;;23.15;49.91
6435;BME280;3250;42.694;23.278;2023-05-23T09:50:25;94610.03;;;22.91;50.47
6435;BME280;3250;42.694;23.278;2023-05-23T09:52:54;94607.63;;;22.89;53.48
6435;BME280;3250;42.694;23.278;2023-05-23T09:55:20;94635.44;;;23.12;50.18
6435;BME280;3250;42.694;23.278;2023-05-23T09:57:47;94625.06;;;23.06;49.14
6435;BME280;3250;42.694;23.278;2023-05-23T10:00:14;94616.47;;;22.90;50.52
6435;BME280;3250;42.694;23.278;2023-05-23T10:05:48;94632.88;;;22.88;48.81
6435;BME280;3250;42.694;23.278;2023-05-23T10:08:16;94632.88;;;22.88;49.27
6435;BME280;3250;42.694;23.278;2023-05-23T10:13:21;94619.59;;;22.59;48.71
6435;BME280;3250;42.694;23.278;2023-05-23T10:15:48;94602.41;;;22.42;52.08
6435;BME280;3250;42.694;23.278;2023-05-23T10:18:20;94632.66;;;22.47;49.03
6435;BME280;3250;42.694;23.278;2023-05-23T10:20:51;94622.38;;;22.36;48.93
6435;BME280;3250;42.694;23.278;2023-05-23T10:50:14;94606.28;;;22.36;46.30
6435;BME280;3250;42.694;23.278;2023-05-23T10:52:40;94586.56;;;22.27;46.01
6435;BME280;3250;42.694;23.278;2023-05-23T10:55:14;94605.84;;;22.29;45.54
6435;BME280;3250;42.694;23.278;2023-05-23T10:57:42;94607.88;;;22.37;46.49
6435;BME280;3250;42.694;23.278;2023-05-23T11:00:17;94589.81;;;22.42;45.89
6435;BME280;3250;42.694;23.278;2023-05-23T11:02:53;94578.72;;;22.30;44.65
6435;BME280;3250;42.694;23.278;2023-05-23T11:05:23;94606.03;;;22.32;45.73
6435;BME280;3250;42.694;23.278;2023-05-23T11:08:12;94600.47;;;22.47;46.47
6435;BME280;3250;42.694;23.278;2023-05-23T11:11:00;94600.25;;;22.63;49.16
6435;BME280;3250;42.694;23.278;2023-05-23T11:18:48;94590.94;;;22.74;43.96
6435;BME280;3250;42.694;23.278;2023-05-23T11:21:15;94569.53;;;22.69;44.59
6435;BME280;3250;42.694;23.278;2023-05-23T11:23:41;94564.03;;;22.60;44.88
6435;BME280;3250;42.694;23.278;2023-05-23T11:26:32;94577.94;;;22.48;48.06
6435;BME280;3250;42.694;23.278;2023-05-23T11:28:58;94577.59;;;22.69;46.81
6435;BME280;3250;42.694;23.278;2023-05-23T11:31:24;94585.13;;;22.85;45.77
6435;BME280;3250;42.694;23.278;2023-05-23T11:33:50;94577.69;;;22.82;45.63
6435;BME280;3250;42.694;23.278;2023-05-23T11:36:16;94539.59;;;22.62;44.88
6435;BME280;3250;42.694;23.278;2023-05-23T11:38:41;94554.81;;;22.66;44.97
6435;BME280;3250;42.694;23.278;2023-05-23T11:41:07;94563.72;;;22.48;44.51
6435;BME280;3250;42.694;23.278;2023-05-23T11:43:32;94573.03;;;22.50;45.83
6435;BME280;3250;42.694;23.278;2023-05-23T11:46:07;94564.00;;;22.28;45.76
6435;BME280;3250;42.694;23.278;2023-05-23T11:48:32;94519.16;;;21.72;45.42
6435;BME280;3250;42.694;23.278;2023-05-23T11:50:57;94564.16;;;22.17;49.12
6435;BME280;3250;42.694;23.278;2023-05-23T11:53:26;94533.19;;;22.25;47.82
6435;BME280;3250;42.694;23.278;2023-05-23T11:55:57;94482.09;;;22.16;45.34
6435;BME280;3250;42.694;23.278;2023-05-23T11:58:28;94539.03;;;22.65;46.83
6435;BME280;3250;42.694;23.278;2023-05-23T12:01:01;94558.28;;;22.85;44.97
6435;BME280;3250;42.694;23.278;2023-05-23T12:03:28;94526.53;;;22.74;46.02
6435;BME280;3250;42.694;23.278;2023-05-23T12:05:54;94560.69;;;23.01;44.97
6435;BME280;3250;42.694;23.278;2023-05-23T12:08:19;94546.78;;;22.99;44.21
6435;BME280;3250;42.694;23.278;2023-05-23T12:10:58;94536.84;;;22.99;45.57
6435;BME280;3250;42.694;23.278;2023-05-23T12:13:25;94512.56;;;22.90;43.03
6435;BME280;3250;42.694;23.278;2023-05-23T12:15:55;94523.53;;;23.08;44.82
6435;BME280;3250;42.694;23.278;2023-05-23T12:18:22;94509.88;;;23.04;45.13
6435;BME280;3250;42.694;23.278;2023-05-23T12:20:49;94531.88;;;23.20;45.84
6435;BME280;3250;42.694;23.278;2023-05-23T12:23:23;94537.06;;;23.30;44.38
6435;BME280;3250;42.694;23.278;2023-05-23T12:25:54;94527.06;;;22.89;42.91
6435;BME280;3250;42.694;23.278;2023-05-23T12:28:39;94541.13;;;23.00;42.16
6435;BME280;3250;42.694;23.278;2023-05-23T12:31:14;94533.38;;;22.99;43.15
6435;BME280;3250;42.694;23.278;2023-05-23T12:33:41;94524.63;;;23.07;47.18
6435;BME280;3250;42.694;23.278;2023-05-23T12:36:10;94509.69;;;23.14;45.05
6435;BME280;3250;42.694;23.278;2023-05-23T12:38:36;94513.97;;;23.15;43.14
6435;BME280;3250;42.694;23.278;2023-05-23T12:41:09;94510.00;;;23.13;43.43
6435;BME280;3250;42.694;23.278;2023-05-23T12:43:39;94484.03;;;23.22;44.67
6435;BME280;3250;42.694;23.278;2023-05-23T12:46:05;94477.06;;;23.21;44.29
6435;BME280;3250;42.694;23.278;2023-05-23T12:48:30;94490.41;;;23.40;44.78
6435;BME280;3250;42.694;23.278;2023-05-23T12:50:56;94492.66;;;23.46;42.96
6435;BME280;3250;42.694;23.278;2023-05-23T12:53:21;94477.47;;;23.28;43.17
6435;BME280;3250;42.694;23.278;2023-05-23T12:55:47;94497.75;;;23.20;41.99
6435;BME280;3250;42.694;23.278;2023-05-23T12:58:12;94467.47;;;22.74;41.97
6435;BME280;3250;42.694;23.278;2023-05-23T13:00:37;94471.78;;;22.88;42.06
6435;BME280;3250;42.694;23.278;2023-05-23T13:03:03;94485.50;;;23.01;41.83
6435;BME280;3250;42.694;23.278;2023-05-23T13:05:30;94481.34;;;23.08;44.40
6435;BME280;3250;42.694;23.278;2023-05-23T13:07:55;94483.50;;;22.92;41.78
6435;BME280;3250;42.694;23.278;2023-05-23T13:10:25;94496.97;;;23.06;41.27
6435;BME280;3250;42.694;23.278;2023-05-23T13:12:50;94494.28;;;23.06;42.77
6435;BME280;3250;42.694;23.278;2023-05-23T13:15:16;94499.03;;;22.95;40.51
6435;BME280;3250;42.694;23.278;2023-05-23T13:17:41;94482.13;;;22.81;40.79
6435;BME280;3250;42.694;23.278;2023-05-23T13:20:07;94481.16;;;22.91;40.38
6435;BME280;3250;42.694;23.278;2023-05-23T13:22:33;94492.41;;;23.07;40.21
6435;BME280;3250;42.694;23.278;2023-05-23T13:24:59;94466.41;;;23.02;40.06
6435;BME280;3250;42.694;23.278;2023-05-23T13:27:25;94492.88;;;23.36;40.41
6435;BME280;3250;42.694;23.278;2023-05-23T13:29:50;94468.22;;;23.34;40.57
6435;BME280;3250;42.694;23.278;2023-05-23T13:32:15;94464.72;;;23.47;40.84
6435;BME280;3250;42.694;23.278;2023-05-23T13:34:41;94472.78;;;23.61;42.07
6435;BME280;3250;42.694;23.278;2023-05-23T13:37:07;94502.81;;;23.77;41.22
6435;BME280;3250;42.694;23.278;2023-05-23T13:39:32;94469.81;;;23.49;40.13
6435;BME280;3250;42.694;23.278;2023-05-23T13:41:57;94503.25;;;23.56;40.38
6435;BME280;3250;42.694;23.278;2023-05-23T13:44:23;94483.34;;;23.30;40.21
6435;BME280;3250;42.694;23.278;2023-05-23T13:46:48;94452.38;;;22.78;41.57
6435;BME280;3250;42.694;23.278;2023-05-23T13:49:14;94479.56;;;22.90;41.06
6435;BME280;3250;42.694;23.278;2023-05-23T13:51:39;94460.47;;;22.91;41.12